Time;durP1;ratioP1;P1;durP2;ratioP2;P2;SDS_P1;SDS_P2;PMS_P1;PMS_P2;Temp;Humidity;BMP_temperature;BMP_pressure;BME280_temperature;BME280_humidity;BME280_pressure;Samples;Min_cycle;Max_cycle;Signal;HPM_P1;HPM_P2
2023/06/22 00:02:22;;;;;;;61.30;8.10;;;;;;;25.37;59.32;99715.50;7313068;19;129797;-36
2023/06/22 00:04:47;;;;;;;39.20;6.77;;;;;;;25.27;59.58;99701.63;7311319;19;130328;-32
2023/06/22 00:07:12;;;;;;;32.50;6.07;;;;;;;25.39;59.59;99725.88;7311773;19;128890;-40
2023/06/22 00:09:38;;;;;;;39.53;6.87;;;;;;;25.39;58.83;99728.50;7310619;19;129392;-38
2023/06/22 00:12:04;;;;;;;59.23;7.37;;;;;;;25.39;59.57;99725.88;7311836;19;129620;-38
2023/06/22 00:14:29;;;;;;;24.30;5.60;;;;;;;25.37;58.84;99719.97;7309176;19;130099;-40
2023/06/22 00:16:57;;;;;;;33.93;6.40;;;;;;;25.35;59.25;99719.28;7312485;19;129445;-35
2023/06/22 00:19:23;;;;;;;25.92;5.45;;;;;;;25.38;59.16;99718.97;7310456;19;129161;-37
2023/06/22 00:21:52;;;;;;;28.70;6.37;;;;;;;25.37;59.13;99722.59;7313530;19;129505;-39
2023/06/22 00:24:18;;;;;;;27.08;6.00;;;;;;;25.35;59.24;99725.34;7310851;19;129528;-41
2023/06/22 00:26:43;;;;;;;31.73;6.77;;;;;;;25.38;58.72;99737.38;7312527;19;129924;-43
2023/06/22 00:29:09;;;;;;;30.20;6.33;;;;;;;25.34;59.17;99728.97;7310357;19;129873;-43
2023/06/22 00:31:34;;;;;;;29.20;6.47;;;;;;;25.38;59.48;99750.56;7312559;19;131037;-42
2023/06/22 00:33:59;;;;;;;30.67;6.00;;;;;;;25.34;59.26;99747.38;7310118;19;130134;-40
2023/06/22 00:36:25;;;;;;;40.37;5.73;;;;;;;25.36;58.67;99749.88;7311477;19;130600;-42
2023/06/22 00:38:50;;;;;;;37.10;6.20;;;;;;;25.37;59.09;99747.09;7308893;19;129188;-35
2023/06/22 00:41:17;;;;;;;28.63;5.97;;;;;;;25.38;59.27;99745.28;7311592;19;129225;-40
2023/06/22 00:43:42;;;;;;;25.70;5.72;;;;;;;25.35;58.93;99751.69;7311843;19;130037;-34
2023/06/22 00:46:08;;;;;;;35.50;5.87;;;;;;;25.36;58.93;99742.81;7312141;19;129332;-41
2023/06/22 00:48:33;;;;;;;81.73;8.77;;;;;;;25.34;59.11;99746.53;7310485;19;129224;-44
2023/06/22 00:50:59;;;;;;;25.30;5.87;;;;;;;25.35;59.11;99745.63;7308935;19;129280;-38
2023/06/22 00:53:25;;;;;;;37.30;6.97;;;;;;;25.33;59.10;99737.84;7310783;19;129247;-36
2023/06/22 00:55:53;;;;;;;51.50;7.37;;;;;;;25.33;59.02;99727.31;7310462;19;129063;-37
2023/06/22 00:58:21;;;;;;;36.60;7.00;;;;;;;25.34;58.78;99733.38;7309048;19;129662;-41
2023/06/22 01:00:47;;;;;;;27.38;5.82;;;;;;;25.36;58.86;99736.72;7309913;19;129265;-38
2023/06/22 01:03:13;;;;;;;35.42;6.28;;;;;;;25.32;58.87;99741.44;7310136;19;129242;-38
2023/06/22 01:05:40;;;;;;;46.17;6.93;;;;;;;25.37;59.42;99738.38;7311494;19;129503;-36
2023/06/22 01:08:14;;;;;;;58.67;7.85;;;;;;;25.37;59.26;99739.19;7308725;19;130140;-36
2023/06/22 01:10:59;;;;;;;36.50;7.03;;;;;;;25.39;59.23;99741.66;7307834;19;129633;-40
2023/06/22 01:13:37;;;;;;;38.53;6.50;;;;;;;25.38;58.92;99745.28;7308462;19;129846;-40
2023/06/22 01:16:08;;;;;;;25.00;5.88;;;;;;;25.38;59.12;99737.38;7310430;19;128700;-41
2023/06/22 01:18:36;;;;;;;36.83;6.50;;;;;;;25.35;59.11;99740.34;7306035;19;129269;-41
2023/06/22 01:21:09;;;;;;;60.00;7.72;;;;;;;25.34;59.20;99739.47;7307903;19;129421;-36
2023/06/22 01:23:43;;;;;;;54.05;8.02;;;;;;;25.36;59.34;99731.47;7310082;19;129337;-43
2023/06/22 01:26:18;;;;;;;32.20;6.53;;;;;;;25.34;59.68;99736.84;7318477;19;129180;-40
2023/06/22 01:28:54;;;;;;;27.60;6.07;;;;;;;25.33;59.20;99731.75;7317410;19;130202;-37
2023/06/22 01:31:26;;;;;;;43.03;7.10;;;;;;;25.34;59.10;99728.13;7315073;19;130221;-34
2023/06/22 01:33:55;;;;;;;30.20;6.15;;;;;;;25.33;58.87;99734.38;7317098;19;129877;-39
2023/06/22 01:36:22;;;;;;;39.13;7.03;;;;;;;25.34;59.32;99728.13;7315794;19;130080;-39
2023/06/22 01:38:47;;;;;;;;;;;;;;;25.43;59.18;99729.84;7315606;19;129456;-41
2023/06/22 01:41:13;;;;;;;26.58;6.43;;;;;;;25.34;59.14;99718.44;7315008;19;129184;-43
2023/06/22 01:43:39;;;;;;;20.20;6.33;;;;;;;25.33;59.19;99726.50;7317370;19;129501;-39
2023/06/22 01:46:05;;;;;;;51.67;7.87;;;;;;;25.35;58.89;99732.44;7315472;19;130848;-36
2023/06/22 01:48:31;;;;;;;27.13;5.93;;;;;;;25.33;59.23;99732.59;7316960;19;128787;-37
2023/06/22 01:50:57;;;;;;;29.03;6.30;;;;;;;25.33;59.37;99731.75;7312437;19;129915;-35
2023/06/22 01:53:24;;;;;;;33.27;6.97;;;;;;;25.33;59.51;99731.75;7316413;19;129356;-37
2023/06/22 01:55:49;;;;;;;58.45;7.65;;;;;;;25.30;59.52;99721.56;7314094;19;129386;-42
2023/06/22 01:58:15;;;;;;;24.90;6.10;;;;;;;25.32;58.99;99728.28;7315250;19;129012;-35
2023/06/22 02:00:47;;;;;;;123.70;12.67;;;;;;;25.31;59.09;99725.81;7312084;19;129464;-41
2023/06/22 02:03:23;;;;;;;30.85;6.80;;;;;;;25.34;58.74;99728.97;7316008;19;129502;-37
2023/06/22 02:06:04;;;;;;;52.97;8.15;;;;;;;25.24;59.00;99709.84;7315304;19;128725;-38
2023/06/22 02:08:32;;;;;;;29.88;6.35;;;;;;;25.34;59.35;99730.75;7316193;19;128917;-38
2023/06/22 02:10:59;;;;;;;73.95;9.23;;;;;;;25.33;58.80;99723.84;7311814;19;130075;-41
2023/06/22 02:13:25;;;;;;;38.25;6.90;;;;;;;25.32;58.61;99724.84;7316629;19;129749;-41
2023/06/22 02:15:51;;;;;;;31.93;6.73;;;;;;;25.32;58.96;99725.66;7316547;19;129052;-38
2023/06/22 02:18:16;;;;;;;40.70;6.67;;;;;;;25.32;58.64;99722.22;7312738;19;129191;-37
2023/06/22 02:20:42;;;;;;;31.73;6.40;;;;;;;25.31;59.25;99721.38;7314503;19;129331;-37
2023/06/22 02:23:07;;;;;;;27.13;6.23;;;;;;;25.34;59.02;99717.59;7313804;19;129789;-33
2023/06/22 02:25:33;;;;;;;35.30;6.80;;;;;;;25.33;59.07;99721.22;7315433;19;129022;-39
2023/06/22 02:27:59;;;;;;;48.58;7.63;;;;;;;25.33;59.46;99726.50;7312235;19;129156;-40
2023/06/22 02:30:24;;;;;;;34.33;6.70;;;;;;;25.26;59.37;99709.69;7314308;19;129801;-40
2023/06/22 02:32:58;;;;;;;25.30;6.53;;;;;;;25.33;59.08;99716.78;7313236;19;131258;-38
2023/06/22 02:35:35;;;;;;;25.77;6.05;;;;;;;25.35;59.06;99714.84;7314546;19;129034;-38
2023/06/22 02:38:01;;;;;;;54.33;8.53;;;;;;;25.33;59.03;99721.22;7312729;19;129078;-32
2023/06/22 02:40:27;;;;;;;;;;;;;;;25.42;58.88;99723.75;7314415;19;129116;-40
2023/06/22 02:42:53;;;;;;;80.32;9.70;;;;;;;25.35;59.16;99729.81;7315181;19;129143;-35
2023/06/22 02:45:18;;;;;;;20.53;6.00;;;;;;;25.30;58.95;99721.56;7315303;19;129160;-39
2023/06/22 02:47:44;;;;;;;37.23;6.93;;;;;;;25.34;59.10;99733.38;7316050;19;129356;-35
2023/06/22 02:50:09;;;;;;;54.63;8.43;;;;;;;25.34;59.28;99738.66;7311330;19;130204;-41
2023/06/22 02:52:34;;;;;;;32.30;7.07;;;;;;;25.32;59.22;99741.44;7316169;19;129215;-40
2023/06/22 02:55:00;;;;;;;46.60;7.83;;;;;;;25.31;58.78;99747.72;7313291;19;129783;-37
2023/06/22 02:57:25;;;;;;;27.37;6.50;;;;;;;25.27;58.58;99738.47;7315213;19;129178;-39
2023/06/22 02:59:50;;;;;;;64.60;9.00;;;;;;;25.31;58.55;99747.72;7312048;19;129158;-37
2023/06/22 03:02:16;;;;;;;37.07;7.40;;;;;;;25.32;58.74;99745.91;7313208;19;129651;-37
2023/06/22 03:04:42;;;;;;;29.40;6.30;;;;;;;25.31;58.86;99742.44;7314371;19;128820;-44
2023/06/22 03:07:08;;;;;;;34.08;7.47;;;;;;;25.31;58.90;99745.06;7314470;19;128880;-42
2023/06/22 03:09:33;;;;;;;32.60;6.97;;;;;;;25.31;59.21;99738.97;7312428;19;129047;-40
2023/06/22 03:11:58;;;;;;;31.80;7.10;;;;;;;25.32;58.93;99743.28;7315558;19;129615;-39
2023/06/22 03:14:24;;;;;;;45.77;7.67;;;;;;;25.33;58.52;99742.28;7312133;19;128809;-45
2023/06/22 03:16:49;;;;;;;34.40;6.40;;;;;;;25.32;58.76;99744.06;7314080;19;129245;-37
2023/06/22 03:19:14;;;;;;;32.97;7.17;;;;;;;25.30;58.76;99729.44;7310832;19;129429;-39
2023/06/22 03:21:40;;;;;;;29.90;6.70;;;;;;;25.31;58.77;99726.66;7315193;19;129444;-37
2023/06/22 03:24:08;;;;;;;27.97;6.73;;;;;;;25.32;58.50;99719.59;7314099;19;128869;-37
2023/06/22 03:26:34;;;;;;;34.63;6.85;;;;;;;25.29;59.26;99707.56;7313434;19;129906;-36
2023/06/22 03:28:59;;;;;;;35.13;7.47;;;;;;;25.31;58.76;99713.50;7313545;19;130311;-39
2023/06/22 03:31:25;;;;;;;28.43;6.77;;;;;;;25.31;58.51;99702.13;7315099;19;129972;-39
2023/06/22 03:33:51;;;;;;;28.13;6.77;;;;;;;25.31;58.81;99697.69;7314040;19;129202;-43
2023/06/22 03:36:20;;;;;;;29.07;6.33;;;;;;;25.30;59.07;99698.66;7314159;19;129118;-36
2023/06/22 03:38:49;;;;;;;27.70;6.68;;;;;;;25.21;58.91;99680.41;7311796;19;129905;-35
2023/06/22 03:41:15;;;;;;;27.17;6.38;;;;;;;25.29;59.03;99707.56;7314393;19;129258;-36
2023/06/22 03:43:40;;;;;;;29.97;6.57;;;;;;;25.30;58.93;99713.66;7311635;19;129254;-41
2023/06/22 03:46:06;;;;;;;47.20;7.73;;;;;;;25.22;59.26;99687.31;7313048;19;129088;-42
2023/06/22 03:48:31;;;;;;;27.47;6.47;;;;;;;25.29;58.95;99698.81;7311482;19;129488;-37
2023/06/22 03:50:59;;;;;;;45.43;7.73;;;;;;;25.32;58.71;99709.06;7309570;19;129937;-36
2023/06/22 03:53:25;;;;;;;30.98;6.93;;;;;;;25.30;58.42;99711.03;7313498;19;129839;-37
2023/06/22 03:55:51;;;;;;;40.20;7.37;;;;;;;25.29;58.64;99704.09;7313554;19;129128;-43
2023/06/22 03:58:18;;;;;;;;;;;;;;;25.39;58.77;99704.81;7313413;19;129355;-37
2023/06/22 04:00:48;;;;;;;33.63;6.90;;;;;;;25.31;58.49;99702.13;7311686;19;130883;-39
2023/06/22 04:03:14;;;;;;;39.63;7.25;;;;;;;25.28;58.97;99707.72;7312959;19;129836;-44
2023/06/22 04:05:40;;;;;;;34.65;7.35;;;;;;;25.26;59.23;99709.69;7312974;19;129984;-39
2023/06/22 04:08:06;;;;;;;42.47;8.33;;;;;;;25.28;58.83;99712.97;7313662;19;129058;-43
2023/06/22 04:10:31;;;;;;;26.60;6.53;;;;;;;25.28;59.17;99718.25;7311178;19;130303;-42
2023/06/22 04:12:57;;;;;;;17.57;5.77;;;;;;;25.28;58.87;99712.97;7313259;19;128804;-44
2023/06/22 04:15:22;;;;;;;41.85;7.47;;;;;;;25.28;58.63;99721.72;7313832;19;128995;-37
2023/06/22 04:17:47;;;;;;;31.83;6.90;;;;;;;25.28;58.68;99737.50;7313081;19;129653;-41
2023/06/22 04:20:13;;;;;;;47.13;7.57;;;;;;;25.28;59.17;99736.66;7309711;19;129913;-39
2023/06/22 04:22:38;;;;;;;37.33;7.20;;;;;;;25.26;58.90;99741.25;7313406;19;128939;-37
2023/06/22 04:25:07;;;;;;;39.70;7.75;;;;;;;25.28;58.73;99739.31;7311506;19;129249;-45
2023/06/22 04:27:36;;;;;;;19.73;6.00;;;;;;;25.26;58.99;99733.38;7312210;19;130229;-35
2023/06/22 04:30:06;;;;;;;29.35;7.03;;;;;;;25.24;58.74;99724.81;7310235;19;129503;-44
2023/06/22 04:32:32;;;;;;;29.85;6.45;;;;;;;25.26;59.36;99725.47;7309700;19;129172;-44
2023/06/22 04:34:58;;;;;;;35.07;6.87;;;;;;;25.16;59.11;99709.00;7310339;19;128874;-41
2023/06/22 04:37:24;;;;;;;32.97;7.10;;;;;;;25.27;58.86;99725.31;7312127;19;129031;-39
2023/06/22 04:39:49;;;;;;;14.98;5.97;;;;;;;25.27;59.43;99724.50;7309224;19;129818;-39
2023/06/22 04:42:15;;;;;;;38.17;7.20;;;;;;;25.29;58.85;99746.19;7309674;19;129230;-40
2023/06/22 04:44:42;;;;;;;40.00;7.13;;;;;;;25.24;59.55;99744.06;7311594;19;128942;-39
2023/06/22 04:47:08;;;;;;;31.42;6.85;;;;;;;25.27;58.85;99753.47;7311329;19;129844;-46
2023/06/22 04:49:35;;;;;;;44.00;8.53;;;;;;;25.29;59.56;99759.34;7308894;19;129169;-44
2023/06/22 04:52:09;;;;;;;48.28;8.20;;;;;;;25.17;59.22;99750.13;7310072;19;129236;-41
2023/06/22 04:54:36;;;;;;;56.33;8.52;;;;;;;25.27;59.40;99767.41;7309868;19;128986;-41
2023/06/22 04:57:09;;;;;;;36.85;7.57;;;;;;;25.29;59.20;99783.88;7309522;19;130892;-38
2023/06/22 04:59:36;;;;;;;38.75;7.43;;;;;;;25.29;59.11;99785.69;7312941;19;130365;-43
2023/06/22 05:02:02;;;;;;;19.65;6.30;;;;;;;25.29;59.27;99793.56;7317090;19;129100;-43
2023/06/22 05:04:32;;;;;;;36.70;7.95;;;;;;;25.28;59.16;99792.78;7318220;19;129609;-40
2023/06/22 05:07:00;;;;;;;39.33;7.78;;;;;;;25.28;59.35;99794.56;7319038;19;129425;-39
2023/06/22 05:09:25;;;;;;;26.13;6.88;;;;;;;25.17;59.39;99773.81;7316950;19;129221;-43
2023/06/22 05:11:51;;;;;;;29.63;7.27;;;;;;;25.27;59.41;99800.81;7314806;19;129342;-42
2023/06/22 05:14:16;;;;;;;49.80;8.70;;;;;;;25.29;59.11;99809.38;7317807;19;129521;-39
2023/06/22 05:16:42;;;;;;;54.03;8.90;;;;;;;25.29;58.87;99810.19;7314620;19;131415;-43
2023/06/22 05:19:08;;;;;;;47.07;8.47;;;;;;;25.28;59.24;99818.25;7310872;19;129192;-43
2023/06/22 05:21:33;;;;;;;36.70;8.30;;;;;;;25.28;59.28;99824.34;7313901;19;131217;-38
2023/06/22 05:24:02;;;;;;;63.83;9.32;;;;;;;25.26;59.41;99815.78;7313975;19;129204;-43
2023/06/22 05:26:32;;;;;;;58.75;8.65;;;;;;;25.26;59.35;99820.22;7313232;19;129348;-38
2023/06/22 05:28:58;;;;;;;57.72;8.82;;;;;;;25.16;59.22;99801.09;7313872;19;130505;-43
2023/06/22 05:31:24;;;;;;;23.33;6.43;;;;;;;25.18;59.33;99809.66;7313952;19;129112;-41
2023/06/22 05:33:52;;;;;;;32.50;7.17;;;;;;;25.29;59.87;99819.91;7313717;19;129880;-37
2023/06/22 05:36:19;;;;;;;45.22;7.97;;;;;;;25.11;60.21;99812.09;7316738;19;129131;-40
2023/06/22 05:38:45;;;;;;;35.28;6.88;;;;;;;25.16;60.13;99804.56;7316694;19;130526;-40
2023/06/22 05:41:10;;;;;;;51.37;8.47;;;;;;;25.08;60.39;99801.06;7314798;19;128960;-42
2023/06/22 05:43:36;;;;;;;41.03;7.87;;;;;;;25.12;60.28;99786.63;7317445;19;128948;-42
2023/06/22 05:46:02;;;;;;;43.77;7.47;;;;;;;25.04;60.24;99783.94;7317586;19;130084;-42
2023/06/22 05:48:27;;;;;;;11.10;6.20;;;;;;;25.08;60.69;99785.25;7317421;19;130341;-42
2023/06/22 05:50:53;;;;;;;87.10;10.20;;;;;;;25.17;60.56;99795.66;7298556;19;129128;-40
2023/06/22 05:53:19;;;;;;;39.13;7.33;;;;;;;25.10;60.45;99786.78;7316091;19;129362;-40
2023/06/22 05:55:44;;;;;;;36.10;7.17;;;;;;;25.15;60.26;99802.91;7318066;19;129147;-43
2023/06/22 05:58:10;;;;;;;21.73;6.10;;;;;;;25.17;60.10;99794.88;7316166;19;129261;-39
2023/06/22 06:00:36;;;;;;;31.67;6.70;;;;;;;25.16;60.18;99796.66;7316088;19;129526;-32
2023/06/22 06:03:04;;;;;;;36.23;6.90;;;;;;;25.19;60.66;99787.59;7316734;19;129501;-41
2023/06/22 06:05:33;;;;;;;41.03;7.18;;;;;;;25.23;60.78;99778.44;7317006;19;129440;-40
2023/06/22 06:08:00;;;;;;;61.33;8.32;;;;;;;25.27;60.39;99775.31;7314904;19;129088;-44
2023/06/22 06:10:25;;;;;;;;;;;;;;;25.21;60.08;99752.28;7312971;19;129009;-41
2023/06/22 06:12:51;;;;;;;47.93;7.57;;;;;;;25.28;60.17;99776.16;7315982;19;129236;-39
2023/06/22 06:15:17;;;;;;;47.90;7.53;;;;;;;25.31;60.45;99767.94;7316463;19;129613;-39
2023/06/22 06:17:47;;;;;;;12.83;5.40;;;;;;;25.31;60.91;99774.03;7317158;19;129482;-37
2023/06/22 06:20:13;;;;;;;26.60;6.10;;;;;;;25.30;59.90;99766.28;7313700;19;129271;-40
2023/06/22 06:22:39;;;;;;;31.60;5.90;;;;;;;25.28;59.96;99755.94;7317063;19;129303;-38
2023/06/22 06:25:05;;;;;;;43.85;6.53;;;;;;;25.31;60.43;99744.25;7316063;19;130670;-42
2023/06/22 06:27:30;;;;;;;43.60;6.47;;;;;;;25.31;60.34;99738.97;7316425;19;129372;-42
2023/06/22 06:29:56;;;;;;;26.10;5.83;;;;;;;25.25;60.25;99718.56;7313445;19;129219;-41
2023/06/22 06:32:21;;;;;;;38.90;6.53;;;;;;;25.24;59.89;99677.44;7317241;19;129672;-41
2023/06/22 06:34:47;;;;;;;25.37;5.40;;;;;;;25.23;60.20;99668.75;7317375;19;129897;-39
2023/06/22 06:37:13;;;;;;;30.17;6.07;;;;;;;25.32;60.51;99677.47;7316799;19;129421;-41
2023/06/22 06:39:38;;;;;;;20.67;6.10;;;;;;;25.34;60.53;99691.28;7312737;19;129229;-42
2023/06/22 06:42:05;;;;;;;61.73;7.60;;;;;;;25.29;60.09;99683.03;7315667;19;129561;-42
2023/06/22 06:44:30;;;;;;;32.88;6.00;;;;;;;25.17;60.11;99673.81;7315942;19;129390;-41
2023/06/22 06:46:56;;;;;;;45.00;6.37;;;;;;;25.33;60.21;99684.38;7316427;19;130409;-43
2023/06/22 06:49:21;;;;;;;27.70;5.70;;;;;;;25.39;59.83;99686.38;7315229;19;129486;-43
2023/06/22 06:51:46;;;;;;;45.03;6.70;;;;;;;25.36;60.13;99676.19;7315466;19;129676;-38
2023/06/22 06:54:12;;;;;;;27.10;6.13;;;;;;;25.35;59.71;99667.47;7317038;19;130198;-45
2023/06/22 06:56:37;;;;;;;25.73;5.43;;;;;;;25.38;60.19;99676.84;7315388;19;130982;-44
2023/06/22 06:59:03;;;;;;;45.53;7.03;;;;;;;25.28;60.24;99652.44;7313431;19;129134;-41
2023/06/22 07:01:33;;;;;;;46.77;6.47;;;;;;;25.39;60.18;99667.97;7316262;19;129243;-39
2023/06/22 07:03:58;;;;;;;29.10;5.70;;;;;;;25.37;60.24;99669.94;7315371;19;131130;-43
2023/06/22 07:06:28;;;;;;;34.33;5.97;;;;;;;25.29;60.33;99669.88;7314872;19;129423;-42
2023/06/22 07:08:54;;;;;;;33.85;5.90;;;;;;;25.35;59.81;99695.59;7314009;19;128998;-44
2023/06/22 07:11:20;;;;;;;42.17;6.10;;;;;;;25.29;60.17;99683.88;7314366;19;128981;-42
2023/06/22 07:13:45;;;;;;;28.00;5.43;;;;;;;25.41;59.63;99697.59;7314434;19;129024;-42
2023/06/22 07:16:10;;;;;;;26.60;5.57;;;;;;;25.40;59.78;99701.22;7315687;19;129598;-40
2023/06/22 07:18:36;;;;;;;33.93;5.40;;;;;;;25.42;60.41;99701.88;7312313;19;129131;-42
2023/06/22 07:21:02;;;;;;;24.33;5.30;;;;;;;25.45;59.71;99699.72;7311971;19;128893;-43
2023/06/22 07:23:28;;;;;;;47.83;6.40;;;;;;;25.50;59.52;99694.00;7314572;19;129306;-41
2023/06/22 07:25:53;;;;;;;25.97;5.73;;;;;;;25.49;59.51;99690.53;7313514;19;129386;-39
2023/06/22 07:28:19;;;;;;;10.10;4.57;;;;;;;25.49;59.71;99694.97;7314427;19;129289;-41
2023/06/22 07:30:44;;;;;;;41.17;6.00;;;;;;;25.49;59.73;99681.78;7311254;19;129012;-41
2023/06/22 07:33:10;;;;;;;28.80;5.10;;;;;;;25.41;59.62;99697.59;7314236;19;130185;-42
2023/06/22 07:35:35;;;;;;;41.23;6.83;;;;;;;25.39;59.95;99705.66;7310377;19;129659;-35
2023/06/22 07:38:00;;;;;;;71.70;8.73;;;;;;;25.36;59.86;99694.59;7312732;19;129008;-37
2023/06/22 07:40:26;;;;;;;42.93;6.50;;;;;;;25.39;60.05;99691.66;7311622;19;129238;-40
2023/06/22 07:42:52;;;;;;;78.30;8.23;;;;;;;25.35;60.24;99687.72;7313820;19;129397;-44
2023/06/22 07:45:18;;;;;;;29.75;5.65;;;;;;;25.34;60.18;99683.38;7313755;19;130449;-37
2023/06/22 07:47:43;;;;;;;48.20;6.23;;;;;;;25.41;59.75;99697.59;7314431;19;128780;-42
2023/06/22 07:50:09;;;;;;;28.93;5.67;;;;;;;25.39;60.31;99689.00;7312804;19;128998;-41
2023/06/22 07:52:35;;;;;;;49.00;6.97;;;;;;;25.39;60.28;99684.59;7313302;19;129691;-43
2023/06/22 07:55:02;;;;;;;28.13;5.77;;;;;;;25.41;59.72;99685.25;7313467;19;129158;-43
2023/06/22 07:57:33;;;;;;;60.97;7.45;;;;;;;25.40;60.05;99690.69;7313059;19;129542;-41
2023/06/22 07:59:59;;;;;;;38.65;6.50;;;;;;;25.42;60.18;99689.53;7308746;19;128930;-40
2023/06/22 08:02:25;;;;;;;31.75;5.60;;;;;;;25.45;60.33;99688.38;7313716;19;129354;-40
2023/06/22 08:04:50;;;;;;;26.20;5.47;;;;;;;25.38;59.47;99693.47;7313170;19;129391;-40
2023/06/22 08:07:18;;;;;;;40.47;6.03;;;;;;;25.35;59.98;99692.97;7313353;19;128948;-33
2023/06/22 08:09:46;;;;;;;34.15;5.40;;;;;;;25.27;59.91;99664.78;7310819;19;129190;-42
2023/06/22 08:12:12;;;;;;;35.35;5.95;;;;;;;25.35;60.03;99677.19;7312998;19;129044;-36
2023/06/22 08:14:38;;;;;;;34.87;6.47;;;;;;;25.36;60.14;99684.91;7312486;19;131253;-39
2023/06/22 08:17:04;;;;;;;39.03;6.50;;;;;;;25.34;60.20;99681.56;7313176;19;128872;-31
2023/06/22 08:19:29;;;;;;;39.57;6.00;;;;;;;25.35;59.89;99682.44;7310936;19;129533;-41
2023/06/22 08:21:55;;;;;;;25.73;5.63;;;;;;;25.34;59.35;99683.38;7312990;19;129408;-35
2023/06/22 08:24:20;;;;;;;26.27;5.67;;;;;;;25.41;59.90;99666.00;7312299;19;129117;-43
2023/06/22 08:26:45;;;;;;;55.80;7.53;;;;;;;25.29;60.30;99651.47;7312617;19;129108;-41
2023/06/22 08:29:11;;;;;;;36.83;6.07;;;;;;;25.38;59.71;99671.59;7312090;19;129880;-42
2023/06/22 08:31:36;;;;;;;18.60;4.93;;;;;;;25.34;60.41;99651.78;7312488;19;130159;-40
2023/06/22 08:34:01;;;;;;;52.00;6.90;;;;;;;25.36;60.06;99668.28;7309682;19;129617;-43
2023/06/22 08:36:32;;;;;;;50.20;7.03;;;;;;;25.27;59.52;99663.97;7312327;19;129320;-43
2023/06/22 08:39:01;;;;;;;41.33;7.00;;;;;;;25.36;59.95;99673.56;7309863;19;129408;-35
2023/06/22 08:41:27;;;;;;;34.60;5.78;;;;;;;25.33;59.47;99673.84;7311559;19;130183;-37
2023/06/22 08:43:53;;;;;;;13.90;5.40;;;;;;;25.34;60.11;99662.31;7311844;19;129491;-42
2023/06/22 08:46:23;;;;;;;34.63;6.07;;;;;;;25.35;59.82;99662.19;7311876;19;129136;-35
2023/06/22 08:48:48;;;;;;;44.53;6.65;;;;;;;25.35;59.90;99666.66;7311785;19;128874;-41
2023/06/22 08:51:13;;;;;;;29.57;5.70;;;;;;;25.39;59.78;99658.25;7312638;19;130374;-43
2023/06/22 08:53:39;;;;;;;57.20;7.20;;;;;;;25.40;59.78;99667.00;7310057;19;129611;-39
2023/06/22 08:56:04;;;;;;;47.23;6.60;;;;;;;25.47;59.81;99663.53;7312413;19;129318;-43
2023/06/22 08:58:29;;;;;;;33.00;5.90;;;;;;;25.41;59.90;99671.25;7312247;19;129212;-41
2023/06/22 09:00:55;;;;;;;25.60;5.90;;;;;;;25.43;59.63;99674.56;7309393;19;129213;-44
2023/06/22 09:03:20;;;;;;;34.80;5.93;;;;;;;25.48;59.37;99662.56;7311080;19;129061;-41
2023/06/22 09:05:46;;;;;;;52.83;7.13;;;;;;;25.52;59.80;99657.78;7311763;19;130250;-45
2023/06/22 09:08:11;;;;;;;36.93;6.67;;;;;;;25.50;59.83;99659.78;7310269;19;129241;-38
2023/06/22 09:10:37;;;;;;;21.33;5.07;;;;;;;25.52;59.65;99653.34;7309019;19;129462;-43
2023/06/22 09:13:02;;;;;;;27.30;5.87;;;;;;;25.52;59.38;99652.50;7311055;19;129166;-38
2023/06/22 09:15:27;;;;;;;44.80;7.03;;;;;;;25.55;59.36;99646.94;7311129;19;128967;-42
2023/06/22 09:17:54;;;;;;;50.87;7.60;;;;;;;25.51;59.83;99658.78;7310841;19;129026;-39
2023/06/22 09:20:20;;;;;;;57.78;7.90;;;;;;;25.48;59.25;99661.72;7306876;19;129159;-43
2023/06/22 09:22:46;;;;;;;68.70;8.13;;;;;;;25.38;59.73;99629.47;7311382;19;129314;-36
2023/06/22 09:25:14;;;;;;;121.32;10.30;;;;;;;25.45;59.34;99646.28;7322301;19;130164;-43
2023/06/22 09:27:39;;;;;;;63.55;8.02;;;;;;;25.47;59.56;99650.38;7322007;19;129309;-43
2023/06/22 09:30:05;;;;;;;26.20;5.57;;;;;;;25.48;59.23;99645.94;7313988;19;130119;-39
2023/06/22 09:32:30;;;;;;;34.58;5.50;;;;;;;25.50;59.56;99641.34;7310761;19;129430;-39
2023/06/22 09:34:56;;;;;;;51.17;7.47;;;;;;;25.52;59.35;99631.44;7311110;19;128995;-39
2023/06/22 09:37:21;;;;;;;12.67;5.13;;;;;;;25.45;59.24;99626.00;7311257;19;128825;-41
2023/06/22 09:39:46;;;;;;;69.10;8.70;;;;;;;25.52;59.47;99639.34;7306491;19;129884;-44
2023/06/22 09:42:13;;;;;;;43.47;7.00;;;;;;;25.40;59.33;99612.50;7310985;19;129917;-40
2023/06/22 09:44:38;;;;;;;39.25;6.80;;;;;;;25.45;59.38;99630.47;7310509;19;129253;-41
2023/06/22 09:47:04;;;;;;;29.37;6.13;;;;;;;25.49;59.34;99637.03;7314624;19;129087;-40
2023/06/22 09:49:29;;;;;;;42.97;7.43;;;;;;;25.52;58.79;99636.72;7315087;19;129463;-41
2023/06/22 09:51:55;;;;;;;47.83;8.10;;;;;;;25.48;59.22;99628.34;7317617;19;130268;-35
2023/06/22 09:54:20;;;;;;;28.67;6.70;;;;;;;25.38;59.02;99625.03;7317545;19;128988;-35
2023/06/22 09:56:45;;;;;;;39.27;7.43;;;;;;;25.36;59.28;99610.38;7316887;19;128761;-42
2023/06/22 09:59:11;;;;;;;19.67;6.07;;;;;;;25.50;59.22;99628.19;7314978;19;129072;-36
2023/06/22 10:01:36;;;;;;;46.33;7.60;;;;;;;25.45;59.38;99620.75;7316319;19;129314;-35
2023/06/22 10:04:02;;;;;;;30.17;6.67;;;;;;;25.51;59.34;99633.28;7317990;19;129246;-38
2023/06/22 10:06:28;;;;;;;29.13;6.82;;;;;;;25.50;59.32;99628.19;7316722;19;129537;-42
2023/06/22 10:08:53;;;;;;;32.33;6.87;;;;;;;25.43;59.37;99622.75;7315906;19;128988;-40
2023/06/22 10:11:18;;;;;;;47.27;7.80;;;;;;;25.34;58.85;99631.56;7316079;19;130357;-40
2023/06/22 10:13:44;;;;;;;54.20;8.00;;;;;;;25.36;58.88;99620.91;7316345;19;129567;-37
2023/06/22 10:16:09;;;;;;;24.17;6.30;;;;;;;25.37;59.32;99615.47;7316988;19;128762;-38
2023/06/22 10:18:34;;;;;;;40.70;7.53;;;;;;;25.45;59.52;99617.31;7315507;19;129138;-39
2023/06/22 10:21:00;;;;;;;43.13;6.80;;;;;;;25.33;59.28;99600.16;7314075;19;129254;-35
2023/06/22 10:23:25;;;;;;;37.57;7.50;;;;;;;25.36;59.26;99619.09;7317381;19;128808;-37
2023/06/22 10:25:51;;;;;;;16.77;5.70;;;;;;;25.46;60.30;99613.69;7316273;19;128988;-41
2023/06/22 10:28:16;;;;;;;35.37;6.53;;;;;;;25.47;59.45;99613.50;7315061;19;129291;-39
2023/06/22 10:30:42;;;;;;;50.20;8.00;;;;;;;25.36;59.51;99589.31;7313700;19;131134;-36
2023/06/22 10:33:12;;;;;;;32.60;6.83;;;;;;;25.39;60.25;99600.34;7316640;19;129042;-37
2023/06/22 10:35:38;;;;;;;29.23;6.85;;;;;;;25.44;59.78;99602.50;7315958;19;128865;-41
2023/06/22 10:38:04;;;;;;;74.63;9.33;;;;;;;25.44;59.43;99597.22;7315835;19;129291;-37
2023/06/22 10:40:29;;;;;;;41.57;7.90;;;;;;;25.49;60.25;99593.13;7313545;19;130684;-43
2023/06/22 10:42:55;;;;;;;42.30;7.47;;;;;;;25.46;59.72;99593.44;7316371;19;128822;-42
2023/06/22 10:45:20;;;;;;;63.30;8.40;;;;;;;25.48;60.12;99583.59;7313052;19;130043;-40
2023/06/22 10:47:45;;;;;;;54.53;7.73;;;;;;;25.49;59.77;99581.75;7314135;19;129937;-40
2023/06/22 10:50:11;;;;;;;71.10;8.20;;;;;;;25.50;59.72;99580.78;7313858;19;130433;-43
2023/06/22 10:52:37;;;;;;;30.43;6.10;;;;;;;25.39;60.15;99562.66;7315831;19;129594;-44
2023/06/22 10:55:02;;;;;;;51.50;7.53;;;;;;;25.52;60.10;99573.53;7313556;19;129197;-42
2023/06/22 10:57:28;;;;;;;49.00;6.83;;;;;;;25.56;59.89;99565.16;7314720;19;129746;-43
2023/06/22 10:59:53;;;;;;;40.17;7.13;;;;;;;25.51;59.83;99561.38;7313539;19;129532;-43
2023/06/22 11:02:19;;;;;;;11.37;5.13;;;;;;;25.40;59.48;99572.22;7315411;19;129384;-41
2023/06/22 11:04:44;;;;;;;44.97;7.10;;;;;;;25.33;59.22;99568.56;7316081;19;128926;-43
2023/06/22 11:07:10;;;;;;;34.73;6.40;;;;;;;25.35;60.17;99567.44;7315768;19;129387;-42
2023/06/22 11:09:35;;;;;;;32.17;6.00;;;;;;;25.37;60.49;99564.66;7314580;19;129651;-42
2023/06/22 11:12:01;;;;;;;28.10;6.03;;;;;;;25.49;60.13;99566.78;7315853;19;129866;-43
2023/06/22 11:14:26;;;;;;;33.27;6.00;;;;;;;25.43;60.03;99566.63;7315070;19;129032;-38